createdAt,value
2018-06-12T00:01:05.341Z,99351.94
2018-06-12T00:03:34.930Z,99344.08
2018-06-12T00:06:04.634Z,99350.50
2018-06-12T00:08:34.294Z,99353.72
2018-06-12T00:11:03.121Z,99354.25
2018-06-12T00:13:32.017Z,99349.69
2018-06-12T00:16:01.704Z,99350.47
2018-06-12T00:18:31.493Z,99353.41
2018-06-12T00:21:00.366Z,99351.81
2018-06-12T00:23:29.268Z,99355.86
2018-06-12T00:25:58.120Z,99351.25
2018-06-12T00:28:27.181Z,99353.41
2018-06-12T00:30:56.595Z,99351.25
2018-06-12T00:33:26.099Z,99351.03
2018-06-12T00:35:56.069Z,99353.75
2018-06-12T00:38:25.183Z,99358.05
2018-06-12T00:40:54.968Z,99356.95
2018-06-12T00:43:24.860Z,99351.59
2018-06-12T00:45:53.828Z,99355.66
2018-06-12T00:48:22.773Z,99352.72
2018-06-12T00:50:52.506Z,99360.02
2018-06-12T00:53:21.404Z,99357.85
2018-06-12T00:55:50.215Z,99356.79
2018-06-12T00:58:20.034Z,99359.20
2018-06-12T01:00:48.880Z,99360.58
2018-06-12T01:03:19.028Z,99367.62
2018-06-12T01:05:48.756Z,99362.81
2018-06-12T01:08:18.451Z,99370.37
2018-06-12T01:10:47.347Z,99375.22
2018-06-12T01:13:17.116Z,99378.98
2018-06-12T01:15:46.783Z,99373.88
2018-06-12T01:18:16.189Z,99364.44
2018-06-12T01:20:45.235Z,99369.61
2018-06-12T01:23:14.146Z,99373.97
2018-06-12T01:25:43.329Z,99371.05
2018-06-12T01:28:12.233Z,99373.22
2018-06-12T01:30:41.842Z,99367.55
2018-06-12T01:33:10.960Z,99370.83
2018-06-12T01:35:41.038Z,99373.55
2018-06-12T01:38:10.141Z,99373.28
2018-06-12T01:40:40.248Z,99368.15
2018-06-12T01:43:09.363Z,99380.26
2018-06-12T01:45:38.578Z,99376.19
2018-06-12T01:48:08.478Z,99370.52
2018-06-12T01:50:37.685Z,99378.86
2018-06-12T01:53:06.672Z,99387.48
2018-06-12T01:55:35.795Z,99386.11
2018-06-12T01:58:05.174Z,99390.15
2018-06-12T02:00:34.138Z,99390.42
2018-06-12T02:03:04.065Z,99394.19
2018-06-12T02:05:33.821Z,99399.83
2018-06-12T02:08:03.595Z,99391.19
2018-06-12T02:10:32.381Z,99397.67
2018-06-12T02:13:02.655Z,99399.02
2018-06-12T02:15:32.655Z,99406.82
2018-06-12T02:18:02.445Z,99403.28
2018-06-12T02:20:31.390Z,99406.98
2018-06-12T02:23:00.256Z,99410.50
2018-06-12T02:25:29.191Z,99407.49
2018-06-12T02:27:58.006Z,99407.97
2018-06-12T02:30:27.187Z,99417.67
2018-06-12T02:32:56.172Z,99417.17
2018-06-12T02:35:26.013Z,99419.30
2018-06-12T02:37:56.026Z,99424.38
2018-06-12T02:40:26.866Z,99419.58
2018-06-12T02:42:55.830Z,99421.99
2018-06-12T02:45:25.553Z,99434.68
2018-06-12T02:47:54.707Z,99427.13
2018-06-12T02:50:23.650Z,99427.13
2018-06-12T02:52:52.590Z,99424.47
2018-06-12T02:55:21.407Z,99425.81
2018-06-12T02:57:51.358Z,99425.03
2018-06-12T03:00:20.391Z,99420.15
2018-06-12T03:02:49.210Z,99424.94
2018-06-12T03:05:19.482Z,99432.45
2018-06-12T03:07:49.139Z,99426.22
2018-06-12T03:10:18.080Z,99432.17
2018-06-12T03:12:47.796Z,99432.45
2018-06-12T03:15:17.496Z,99435.68
2018-06-12T03:17:47.148Z,99448.47
2018-06-12T03:20:15.953Z,99447.75
2018-06-12T03:22:44.890Z,99454.41
2018-06-12T03:25:13.758Z,99460.31
2018-06-12T03:27:42.543Z,99458.66
2018-06-12T03:30:11.567Z,99452.80
2018-06-12T03:32:40.730Z,99442.36
2018-06-12T03:35:10.336Z,99437.11
2018-06-12T03:37:40.334Z,99438.74
2018-06-12T03:40:10.210Z,99451.94
2018-06-12T03:42:39.938Z,99447.77
2018-06-12T03:45:09.023Z,99445.78
2018-06-12T03:47:38.482Z,99454.96
2018-06-12T03:50:07.450Z,99454.74
2018-06-12T03:52:36.293Z,99463.27
2018-06-12T03:55:05.616Z,99455.78
2018-06-12T03:57:35.342Z,99465.22
2018-06-12T04:00:05.026Z,99470.54
2018-06-12T04:02:33.875Z,99472.81
2018-06-12T04:05:04.077Z,99478.55
2018-06-12T04:07:33.720Z,99485.43
2018-06-12T04:10:02.589Z,99477.91
2018-06-12T04:12:31.443Z,99484.14
2018-06-12T04:15:01.028Z,99486.07
2018-06-12T04:17:30.753Z,99494.95
2018-06-12T04:19:59.605Z,99491.16
2018-06-12T04:22:28.381Z,99498.70
2018-06-12T04:24:57.191Z,99499.24
2018-06-12T04:27:26.014Z,99501.93
2018-06-12T04:29:55.007Z,99508.16
2018-06-12T04:32:24.025Z,99496.85
2018-06-12T04:34:53.658Z,99496.57
2018-06-12T04:37:22.781Z,99498.20
2018-06-12T04:39:52.717Z,99500.63
2018-06-12T04:42:22.254Z,99503.06
2018-06-12T04:44:51.195Z,99503.59
2018-06-12T04:47:20.071Z,99501.44
2018-06-12T04:49:48.895Z,99503.05
2018-06-12T04:52:17.709Z,99506.52
2018-06-12T04:54:46.582Z,99501.39
2018-06-12T04:57:15.359Z,99498.69
2018-06-12T04:59:45.101Z,99503.59
2018-06-12T05:02:13.844Z,99504.14
2018-06-12T05:04:42.630Z,99506.84
2018-06-12T05:07:12.475Z,99513.88
2018-06-12T05:09:41.322Z,99511.19
2018-06-12T05:12:10.346Z,99516.61
2018-06-12T05:14:40.012Z,99520.11
2018-06-12T05:17:09.619Z,99521.73
2018-06-12T05:19:38.505Z,99524.98
2018-06-12T05:22:07.389Z,99517.42
2018-06-12T05:24:36.315Z,99518.76
2018-06-12T05:27:05.055Z,99517.67
2018-06-12T05:29:34.047Z,99519.82
2018-06-12T05:32:03.003Z,99524.17
2018-06-12T05:34:32.330Z,99524.71
2018-06-12T05:37:01.067Z,99532.87
2018-06-12T05:39:30.420Z,99536.87
2018-06-12T05:41:59.914Z,99539.84
2018-06-12T05:44:28.698Z,99547.15
2018-06-12T05:46:57.475Z,99549.06
2018-06-12T05:49:26.363Z,99554.21
2018-06-12T05:51:55.160Z,99550.67
2018-06-12T05:54:24.595Z,99557.69
2018-06-12T05:56:53.490Z,99566.86
2018-06-12T05:59:23.248Z,99574.37
2018-06-12T06:01:52.031Z,99577.81
2018-06-12T06:04:21.186Z,99566.93
2018-06-12T06:06:51.199Z,99578.81
2018-06-12T06:09:20.643Z,99573.94
2018-06-12T06:11:49.431Z,99582.02
2018-06-12T06:14:18.812Z,99581.20
2018-06-12T06:16:48.100Z,99587.41
2018-06-12T06:19:16.908Z,99593.33
2018-06-12T06:21:45.654Z,99588.76
2018-06-12T06:24:14.421Z,99592.32
2018-06-12T06:26:43.258Z,99593.73
2018-06-12T06:29:12.218Z,99597.06
2018-06-12T06:31:41.082Z,99600.62
2018-06-12T06:34:10.082Z,99605.30
2018-06-12T06:36:39.797Z,99601.00
2018-06-12T06:39:09.752Z,99598.90
2018-06-12T06:41:39.487Z,99597.26
2018-06-12T06:44:08.564Z,99596.77
2018-06-12T06:46:37.452Z,99601.35
2018-06-12T06:49:06.389Z,99607.58
2018-06-12T06:51:35.268Z,99599.45
2018-06-12T06:54:05.220Z,99614.05
2018-06-12T06:56:34.040Z,99613.53
2018-06-12T06:59:03.823Z,99622.75
2018-06-12T07:01:32.591Z,99619.22
2018-06-12T07:04:01.351Z,99620.84
2018-06-12T07:06:31.530Z,99628.70
2018-06-12T07:09:00.445Z,99627.06
2018-06-12T07:11:29.251Z,99626.25
2018-06-12T07:13:59.206Z,99629.77
2018-06-12T07:16:28.750Z,99640.34
2018-06-12T07:18:57.503Z,99641.95
2018-06-12T07:21:26.403Z,99638.72
2018-06-12T07:23:55.352Z,99646.00
2018-06-12T07:26:24.264Z,99644.41
2018-06-12T07:28:53.173Z,99646.84
2018-06-12T07:31:21.990Z,99646.03
2018-06-12T07:33:51.978Z,99643.06
2018-06-12T07:36:21.463Z,99643.87
2018-06-12T07:38:51.260Z,99649.30
2018-06-12T07:41:20.825Z,99656.09
2018-06-12T07:43:49.578Z,99656.04
2018-06-12T07:46:18.359Z,99655.74
2018-06-12T07:48:47.235Z,99651.94
2018-06-12T07:51:16.031Z,99656.20
2018-06-12T07:53:45.101Z,99659.39
2018-06-12T07:56:13.933Z,99650.35
2018-06-12T07:58:43.840Z,99658.48
2018-06-12T08:01:12.591Z,99664.11
2018-06-12T08:03:41.490Z,99662.23
2018-06-12T08:06:11.135Z,99670.90
2018-06-12T08:08:40.756Z,99678.83
2018-06-12T08:11:09.623Z,99675.36
2018-06-12T08:13:39.298Z,99674.86
2018-06-12T08:16:08.806Z,99678.66
2018-06-12T08:18:38.356Z,99680.22
2018-06-12T08:21:07.207Z,99678.57
2018-06-12T08:23:35.995Z,99675.59
2018-06-12T08:26:04.803Z,99679.33
2018-06-12T08:28:33.570Z,99681.47
2018-06-12T08:31:03.035Z,99679.30
2018-06-12T08:33:31.827Z,99674.80
2018-06-12T08:36:01.431Z,99677.91
2018-06-12T08:38:31.638Z,99677.27
2018-06-12T08:41:01.234Z,99681.06
2018-06-12T08:43:29.986Z,99687.55
2018-06-12T08:45:58.747Z,99691.30
2018-06-12T08:48:27.628Z,99688.27
2018-06-12T08:50:56.494Z,99688.84
2018-06-12T08:53:26.006Z,99700.53
2018-06-12T08:55:54.898Z,99700.02
2018-06-12T08:58:25.234Z,99700.78
2018-06-12T09:00:54.100Z,99705.50
2018-06-12T09:03:22.918Z,99706.97
2018-06-12T09:05:52.680Z,99707.94
2018-06-12T09:08:22.098Z,99716.38
2018-06-12T09:10:50.850Z,99701.63
2018-06-12T09:13:21.546Z,99709.42
2018-06-12T09:15:50.974Z,99713.33
2018-06-12T09:18:20.478Z,99703.61
2018-06-12T09:20:49.312Z,99706.93
2018-06-12T09:23:18.116Z,99715.08
2018-06-12T09:25:46.932Z,99707.16
2018-06-12T09:28:16.314Z,99703.39
2018-06-12T09:30:45.084Z,99704.44
2018-06-12T09:33:13.877Z,99708.77
2018-06-12T09:35:43.583Z,99709.69
2018-06-12T09:38:13.094Z,99719.95
2018-06-12T09:40:42.601Z,99710.71
2018-06-12T09:43:11.662Z,99705.23
2018-06-12T09:45:40.687Z,99702.13
2018-06-12T09:48:09.582Z,99719.00
2018-06-12T09:50:38.503Z,99722.47
2018-06-12T09:53:07.495Z,99720.44
2018-06-12T09:55:36.535Z,99723.14
2018-06-12T09:58:06.478Z,99721.42
2018-06-12T10:00:40.476Z,99724.22
2018-06-12T10:03:09.474Z,99725.96
2018-06-12T10:05:39.322Z,99721.22
2018-06-12T10:08:09.047Z,99722.73
2018-06-12T10:10:37.992Z,99732.88
2018-06-12T10:13:07.958Z,99735.47
2018-06-12T10:15:38.062Z,99736.04
2018-06-12T10:20:35.727Z,99736.25
2018-06-12T10:23:04.499Z,99726.50
2018-06-12T10:25:33.385Z,99739.21
2018-06-12T10:28:03.005Z,99737.16
2018-06-12T10:30:31.831Z,99728.20
2018-06-12T10:33:00.591Z,99731.14
2018-06-12T10:35:30.593Z,99735.39
2018-06-12T10:37:59.827Z,99735.55
2018-06-12T10:40:29.316Z,99732.70
2018-06-12T10:42:58.088Z,99733.45
2018-06-12T10:45:26.964Z,99739.50
2018-06-12T10:47:55.853Z,99738.16
2018-06-12T10:50:24.638Z,99739.16
2018-06-12T10:52:53.565Z,99737.27
2018-06-12T10:55:22.643Z,99736.30
2018-06-12T10:57:52.955Z,99742.03
2018-06-12T11:00:21.807Z,99743.44
2018-06-12T11:02:50.794Z,99747.32
2018-06-12T11:05:20.547Z,99746.19
2018-06-12T11:07:50.594Z,99747.09
2018-06-12T11:10:19.353Z,99752.55
2018-06-12T11:12:48.860Z,99749.27
2018-06-12T11:15:18.348Z,99746.94
2018-06-12T11:17:47.930Z,99747.50
2018-06-12T11:20:16.709Z,99737.86
2018-06-12T11:22:45.556Z,99751.39
2018-06-12T11:25:15.218Z,99753.30
2018-06-12T11:27:44.419Z,99743.50
2018-06-12T11:30:13.227Z,99744.50
2018-06-12T11:32:42.048Z,99741.63
2018-06-12T11:35:11.640Z,99746.56
2018-06-12T11:37:41.582Z,99750.03
2018-06-12T11:40:11.737Z,99755.70
2018-06-12T11:42:40.732Z,99757.72
2018-06-12T11:45:09.961Z,99755.89
2018-06-12T11:47:39.208Z,99752.42
2018-06-12T11:50:08.082Z,99746.23
2018-06-12T11:52:36.983Z,99751.77
2018-06-12T11:55:06.181Z,99746.98
2018-06-12T11:57:36.290Z,99752.62
2018-06-12T12:00:05.558Z,99757.25
2018-06-12T12:02:34.464Z,99765.25
2018-06-12T12:05:03.887Z,99761.32
2018-06-12T12:07:33.478Z,99760.30
2018-06-12T12:10:02.284Z,99757.59
2018-06-12T12:12:31.154Z,99767.53
2018-06-12T12:15:00.922Z,99768.94
2018-06-12T12:17:30.669Z,99773.27
2018-06-12T12:19:59.468Z,99776.33
2018-06-12T12:22:28.998Z,99776.61
2018-06-12T12:24:58.347Z,99774.09
2018-06-12T12:27:27.126Z,99773.00
2018-06-12T12:29:56.136Z,99777.02
2018-06-12T12:32:25.017Z,99776.38
2018-06-12T12:34:55.012Z,99783.34
2018-06-12T12:37:24.131Z,99768.19
2018-06-12T12:39:53.789Z,99775.05
2018-06-12T12:42:23.261Z,99776.78
2018-06-12T12:44:52.075Z,99776.46
2018-06-12T12:47:20.913Z,99774.86
2018-06-12T12:49:49.704Z,99773.33
2018-06-12T12:52:18.487Z,99776.78
2018-06-12T12:54:47.441Z,99776.28
2018-06-12T12:57:16.377Z,99782.52
2018-06-12T12:59:45.944Z,99776.08
2018-06-12T13:02:15.651Z,99780.67
2018-06-12T13:04:44.404Z,99777.83
2018-06-12T13:07:14.990Z,99780.47
2018-06-12T13:09:43.819Z,99778.30
2018-06-12T13:12:13.657Z,99780.69
2018-06-12T13:14:43.295Z,99777.02
2018-06-12T13:17:12.919Z,99781.23
2018-06-12T13:19:42.659Z,99778.30
2018-06-12T13:22:11.586Z,99773.39
2018-06-12T13:24:40.745Z,99771.72
2018-06-12T13:27:09.757Z,99768.27
2018-06-12T13:29:38.961Z,99768.43
2018-06-12T13:32:07.984Z,99768.48
2018-06-12T13:34:37.825Z,99778.13
2018-06-12T13:37:06.700Z,99772.07
2018-06-12T13:39:36.131Z,99764.98
2018-06-12T13:42:06.009Z,99772.33
2018-06-12T13:44:34.776Z,99768.99
2018-06-12T13:47:03.664Z,99768.18
2018-06-12T13:49:32.482Z,99770.41
2018-06-12T13:52:01.324Z,99768.31
2018-06-12T13:54:30.417Z,99769.25
2018-06-12T13:56:59.288Z,99766.55
2018-06-12T13:59:28.861Z,99761.34
2018-06-12T14:01:57.659Z,99761.77
2018-06-12T14:04:26.643Z,99772.01
2018-06-12T14:06:56.177Z,99759.78
2018-06-12T14:09:25.664Z,99762.23
2018-06-12T14:11:54.627Z,99766.64
2018-06-12T14:14:24.367Z,99763.41
2018-06-12T14:16:54.122Z,99765.45
2018-06-12T14:19:23.580Z,99767.76
2018-06-12T14:21:52.415Z,99760.01
2018-06-12T14:24:21.614Z,99767.05
2018-06-12T14:26:50.476Z,99757.59
2018-06-12T14:29:19.523Z,99767.11
2018-06-12T14:31:48.598Z,99756.98
2018-06-12T14:34:17.439Z,99769.89
2018-06-12T14:36:46.850Z,99759.81
2018-06-12T14:39:16.607Z,99756.62
2018-06-12T14:41:46.107Z,99752.72
2018-06-12T14:44:14.965Z,99753.89
2018-06-12T14:46:43.796Z,99757.91
2018-06-12T14:49:12.655Z,99763.33
2018-06-12T14:51:41.548Z,99759.81
2018-06-12T14:54:10.709Z,99754.55
2018-06-12T14:56:39.728Z,99755.25
2018-06-12T14:59:09.493Z,99752.19
2018-06-12T15:01:39.077Z,99758.92
2018-06-12T15:04:07.975Z,99759.86
2018-06-12T15:06:37.904Z,99759.33
2018-06-12T15:09:08.257Z,99757.25
2018-06-12T15:11:37.154Z,99752.56
2018-06-12T15:14:06.767Z,99752.94
2018-06-12T15:16:36.127Z,99755.64
2018-06-12T15:19:04.923Z,99762.63
2018-06-12T15:21:33.698Z,99763.04
2018-06-12T15:24:02.585Z,99764.85
2018-06-12T15:26:31.371Z,99762.77
2018-06-12T15:29:00.307Z,99752.90
2018-06-12T15:31:29.159Z,99755.10
2018-06-12T15:33:57.904Z,99753.77
2018-06-12T15:36:27.614Z,99759.73
2018-06-12T15:38:57.245Z,99752.80
2018-06-12T15:41:26.741Z,99746.96
2018-06-12T15:43:55.549Z,99748.83
2018-06-12T15:46:24.351Z,99743.42
2018-06-12T15:48:53.130Z,99744.31
2018-06-12T15:51:21.867Z,99747.45
2018-06-12T15:53:50.787Z,99745.16
2018-06-12T15:56:19.590Z,99744.73
2018-06-12T15:58:49.051Z,99744.50
2018-06-12T16:01:18.757Z,99743.70
2018-06-12T16:03:47.539Z,99744.54
2018-06-12T16:06:16.942Z,99750.38
2018-06-12T16:08:46.913Z,99750.84
2018-06-12T16:11:15.778Z,99752.73
2018-06-12T16:13:45.455Z,99753.66
2018-06-12T16:16:15.360Z,99758.88
2018-06-12T16:18:44.344Z,99752.05
2018-06-12T16:21:13.186Z,99746.73
2018-06-12T16:23:42.096Z,99743.72
2018-06-12T16:26:11.093Z,99751.66
2018-06-12T16:28:40.301Z,99753.59
2018-06-12T16:31:09.266Z,99747.83
2018-06-12T16:33:38.267Z,99748.16
2018-06-12T16:36:08.305Z,99752.56
2018-06-12T16:38:37.793Z,99750.95
2018-06-12T16:41:07.447Z,99754.88
2018-06-12T16:43:36.335Z,99750.58
2018-06-12T16:46:05.333Z,99749.92
2018-06-12T16:48:34.183Z,99749.70
2018-06-12T16:51:03.020Z,99752.09
2018-06-12T16:53:31.928Z,99753.73
2018-06-12T16:56:01.034Z,99754.30
2018-06-12T16:58:30.509Z,99759.86
2018-06-12T17:00:59.938Z,99761.59
2018-06-12T17:03:28.751Z,99760.86
2018-06-12T17:05:58.077Z,99758.16
2018-06-12T17:08:27.724Z,99756.42
2018-06-12T17:10:57.134Z,99756.98
2018-06-12T17:13:26.854Z,99758.45
2018-06-12T17:15:56.302Z,99751.52
2018-06-12T17:18:25.896Z,99754.74
2018-06-12T17:20:54.654Z,99758.08
2018-06-12T17:23:23.509Z,99753.02
2018-06-12T17:25:52.376Z,99745.78
2018-06-12T17:28:21.110Z,99746.77
2018-06-12T17:30:50.070Z,99747.67
2018-06-12T17:33:18.878Z,99749.98
2018-06-12T17:35:48.365Z,99746.52
2018-06-12T17:38:17.878Z,99747.31
2018-06-12T17:40:47.322Z,99752.64
2018-06-12T17:43:16.558Z,99751.15
2018-06-12T17:45:45.378Z,99751.49
2018-06-12T17:48:14.197Z,99751.54
2018-06-12T17:50:42.953Z,99747.21
2018-06-12T17:53:11.878Z,99747.26
2018-06-12T17:55:40.786Z,99739.68
2018-06-12T17:58:10.587Z,99741.60
2018-06-12T18:00:40.398Z,99740.87
2018-06-12T18:03:09.375Z,99746.05
2018-06-12T18:05:39.062Z,99745.38
2018-06-12T18:08:08.668Z,99747.80
2018-06-12T18:10:38.469Z,99751.13
2018-06-12T18:13:08.083Z,99747.80
2018-06-12T18:15:37.839Z,99747.56
2018-06-12T18:18:07.274Z,99750.79
2018-06-12T18:20:35.999Z,99753.67
2018-06-12T18:23:04.826Z,99762.51
2018-06-12T18:25:33.596Z,99751.59
2018-06-12T18:28:02.438Z,99760.23
2018-06-12T18:30:31.474Z,99761.72
2018-06-12T18:33:00.253Z,99755.38
2018-06-12T18:35:30.127Z,99764.74
2018-06-12T18:37:59.602Z,99759.86
2018-06-12T18:40:29.385Z,99762.92
2018-06-12T18:42:58.129Z,99770.97
2018-06-12T18:45:27.362Z,99770.49
2018-06-12T18:47:56.288Z,99778.16
2018-06-12T18:50:26.351Z,99777.28
2018-06-12T18:52:55.367Z,99777.08
2018-06-12T18:55:24.290Z,99779.42
2018-06-12T18:57:54.119Z,99780.39
2018-06-12T19:00:25.642Z,99791.70
2018-06-12T19:02:54.411Z,99794.13
2018-06-12T19:05:24.273Z,99790.77
2018-06-12T19:07:53.991Z,99798.42
2018-06-12T19:10:23.487Z,99796.28
2018-06-12T19:12:53.091Z,99800.91
2018-06-12T19:15:23.255Z,99793.80
2018-06-12T19:17:52.618Z,99803.05
2018-06-12T19:20:21.370Z,99807.02
2018-06-12T19:22:51.394Z,99806.06
2018-06-12T19:25:20.182Z,99799.69
2018-06-12T19:27:48.936Z,99801.94
2018-06-12T19:30:18.167Z,99811.08
2018-06-12T19:32:46.921Z,99811.75
2018-06-12T19:35:16.818Z,99808.93
2018-06-12T19:37:46.575Z,99815.88
2018-06-12T19:40:16.503Z,99818.44
2018-06-12T19:42:45.262Z,99821.00
2018-06-12T19:45:14.527Z,99818.37
2018-06-12T19:47:43.326Z,99817.68
2018-06-12T19:50:12.106Z,99814.00
2018-06-12T19:52:41.610Z,99819.86
2018-06-12T19:55:11.057Z,99817.78
2018-06-12T19:57:41.254Z,99825.98
2018-06-12T20:00:11.525Z,99828.22
2018-06-12T20:02:41.431Z,99818.22
2018-06-12T20:05:11.142Z,99819.91
2018-06-12T20:07:41.553Z,99825.89
2018-06-12T20:10:13.351Z,99824.30
2018-06-12T20:12:43.004Z,99828.14
2018-06-12T20:15:12.672Z,99828.17
2018-06-12T20:17:42.542Z,99830.58
2018-06-12T20:20:11.375Z,99829.25
2018-06-12T20:22:41.226Z,99829.00
2018-06-12T20:25:10.905Z,99830.61
2018-06-12T20:27:39.966Z,99833.09
2018-06-12T20:30:09.783Z,99833.08
2018-06-12T20:32:38.547Z,99834.42
2018-06-12T20:35:08.315Z,99839.83
2018-06-12T20:37:38.186Z,99838.67
2018-06-12T20:40:08.806Z,99834.86
2018-06-12T20:42:37.841Z,99833.78
2018-06-12T20:45:06.770Z,99839.70
2018-06-12T20:47:35.655Z,99832.11
2018-06-12T20:50:04.643Z,99831.80
2018-06-12T20:52:33.517Z,99837.47
2018-06-12T20:55:02.348Z,99836.33
2018-06-12T20:57:31.110Z,99834.40
2018-06-12T21:00:00.866Z,99831.38
2018-06-12T21:02:30.607Z,99831.61
2018-06-12T21:05:00.323Z,99835.27
2018-06-12T21:07:30.050Z,99834.64
2018-06-12T21:09:58.842Z,99839.70
2018-06-12T21:12:27.656Z,99838.62
2018-06-12T21:14:57.338Z,99840.72
2018-06-12T21:17:27.386Z,99846.55
2018-06-12T21:19:56.430Z,99842.70
2018-06-12T21:22:25.475Z,99850.22
2018-06-12T21:24:55.029Z,99852.87
2018-06-12T21:27:23.902Z,99853.59
2018-06-12T21:29:52.860Z,99852.97
2018-06-12T21:32:21.652Z,99852.34
2018-06-12T21:34:51.779Z,99851.50
2018-06-12T21:37:20.490Z,99847.91
2018-06-12T21:39:50.069Z,99854.34
2018-06-12T21:42:19.549Z,99851.30
2018-06-12T21:44:48.314Z,99862.59
2018-06-12T21:47:17.140Z,99856.30
2018-06-12T21:49:46.245Z,99859.22
2018-06-12T21:52:15.048Z,99854.56
2018-06-12T21:54:44.100Z,99859.06
2018-06-12T21:57:14.155Z,99857.36
2018-06-12T21:59:43.755Z,99854.05
2018-06-12T22:02:13.462Z,99855.36
2018-06-12T22:04:42.253Z,99858.79
2018-06-12T22:07:12.251Z,99854.42
2018-06-12T22:09:41.291Z,99855.19
2018-06-12T22:12:11.499Z,99853.97
2018-06-12T22:14:42.422Z,99860.53
2018-06-12T22:17:12.026Z,99861.66
2018-06-12T22:19:43.630Z,99857.19
2018-06-12T22:22:12.454Z,99861.70
2018-06-12T22:24:42.230Z,99865.32
2018-06-12T22:27:11.308Z,99857.08
2018-06-12T22:29:42.168Z,99864.83
2018-06-12T22:32:11.258Z,99862.89
2018-06-12T22:34:41.395Z,99861.44
2018-06-12T22:37:11.427Z,99860.53
2018-06-12T22:39:41.842Z,99858.88
2018-06-12T22:42:11.442Z,99862.05
2018-06-12T22:44:41.038Z,99862.52
2018-06-12T22:47:09.971Z,99867.28
2018-06-12T22:49:39.451Z,99864.23
2018-06-12T22:53:11.036Z,99869.80
2018-06-12T22:55:40.854Z,99872.89
2018-06-12T22:58:11.298Z,99872.02
2018-06-12T23:00:41.779Z,99873.84
2018-06-12T23:03:11.231Z,99877.28
2018-06-12T23:05:42.958Z,99871.02
2018-06-12T23:08:12.374Z,99875.30
2018-06-12T23:10:41.321Z,99869.04
2018-06-12T23:13:11.259Z,99878.17
2018-06-12T23:15:41.607Z,99880.56
2018-06-12T23:18:11.167Z,99885.08
2018-06-12T23:20:51.482Z,99879.11
2018-06-12T23:23:20.473Z,99886.84
2018-06-12T23:25:49.254Z,99886.20
2018-06-12T23:28:18.254Z,99891.27
2018-06-12T23:30:47.104Z,99887.88
2018-06-12T23:33:15.874Z,99885.63
2018-06-12T23:35:45.763Z,99885.67
2018-06-12T23:38:14.911Z,99889.04
2018-06-12T23:40:44.348Z,99889.38
2018-06-12T23:43:13.134Z,99882.80
2018-06-12T23:45:42.689Z,99885.59
2018-06-12T23:48:11.446Z,99886.55
2018-06-12T23:50:40.790Z,99896.95
2018-06-12T23:53:10.831Z,99885.61
2018-06-12T23:55:40.454Z,99886.66
2018-06-12T23:58:10.884Z,99886.59
